createdAt,value
2018-11-06T00:01:40.009Z,8.60
2018-11-06T00:04:11.040Z,8.60
2018-11-06T00:06:42.310Z,8.40
2018-11-06T00:09:13.468Z,8.40
2018-11-06T00:11:44.687Z,8.40
2018-11-06T00:14:15.689Z,8.60
2018-11-06T00:16:46.229Z,8.60
2018-11-06T00:19:18.367Z,8.70
2018-11-06T00:21:49.313Z,8.60
2018-11-06T00:24:21.120Z,8.60
2018-11-06T00:26:51.976Z,8.50
2018-11-06T00:29:22.794Z,8.50
2018-11-06T00:31:53.904Z,8.50
2018-11-06T00:34:24.614Z,8.60
2018-11-06T00:37:16.110Z,8.60
2018-11-06T00:39:57.619Z,8.50
2018-11-06T00:42:33.959Z,8.50
2018-11-06T00:45:12.761Z,8.50
2018-11-06T00:47:50.415Z,8.50
2018-11-06T00:50:23.109Z,8.50
2018-11-06T00:53:06.027Z,8.60
2018-11-06T00:55:40.272Z,8.60
2018-11-06T00:58:13.544Z,8.50
2018-11-06T01:00:48.548Z,8.50
2018-11-06T01:03:20.140Z,8.40
2018-11-06T01:05:51.902Z,8.30
2018-11-06T01:08:22.758Z,8.30
2018-11-06T01:10:53.993Z,8.30
2018-11-06T01:13:24.630Z,8.30
2018-11-06T01:15:55.530Z,8.30
2018-11-06T01:18:26.005Z,8.20
2018-11-06T01:20:56.766Z,8.10
2018-11-06T01:23:28.198Z,8.20
2018-11-06T01:25:59.950Z,8.20
2018-11-06T01:28:31.695Z,8.20
2018-11-06T01:31:13.717Z,8.10
2018-11-06T01:33:45.874Z,8.20
2018-11-06T01:36:16.403Z,8.30
2018-11-06T01:38:52.892Z,8.30
2018-11-06T01:41:23.530Z,8.30
2018-11-06T01:43:54.625Z,8.30
2018-11-06T01:46:25.233Z,8.30
2018-11-06T01:48:55.736Z,8.10
2018-11-06T01:51:26.262Z,8.30
2018-11-06T01:53:56.707Z,8.30
2018-11-06T01:56:29.994Z,8.30
2018-11-06T01:59:01.356Z,8.40
2018-11-06T02:01:31.849Z,8.40
2018-11-06T02:04:03.718Z,8.50
2018-11-06T02:06:34.244Z,8.60
2018-11-06T02:09:07.198Z,8.60
2018-11-06T02:11:37.812Z,8.60
2018-11-06T02:14:08.405Z,8.50
2018-11-06T02:16:39.064Z,8.50
2018-11-06T02:19:09.827Z,8.40
2018-11-06T02:21:40.666Z,8.40
2018-11-06T02:24:12.386Z,8.40
2018-11-06T02:26:43.067Z,8.40
2018-11-06T02:29:22.170Z,8.40
2018-11-06T02:32:00.102Z,8.50
2018-11-06T02:34:33.305Z,8.50
2018-11-06T02:37:05.342Z,8.50
2018-11-06T02:39:41.009Z,8.50
2018-11-06T02:42:17.720Z,8.40
2018-11-06T02:44:48.680Z,8.30
2018-11-06T02:47:20.422Z,8.20
2018-11-06T02:49:51.648Z,8.30
2018-11-06T02:52:23.946Z,8.30
2018-11-06T02:54:57.117Z,8.30
2018-11-06T02:57:33.778Z,8.40
2018-11-06T03:00:12.123Z,8.40
2018-11-06T03:02:46.003Z,8.40
2018-11-06T03:05:21.743Z,8.40
2018-11-06T03:07:54.980Z,8.30
2018-11-06T03:10:26.543Z,8.20
2018-11-06T03:12:59.758Z,8.20
2018-11-06T03:15:32.704Z,8.20
2018-11-06T03:18:04.887Z,8.30
2018-11-06T03:20:36.469Z,8.30
2018-11-06T03:23:11.471Z,8.20
2018-11-06T03:25:45.855Z,8.20
2018-11-06T03:28:17.096Z,8.30
2018-11-06T03:30:48.579Z,8.30
2018-11-06T03:33:21.166Z,8.30
2018-11-06T03:35:52.804Z,8.30
2018-11-06T03:38:25.809Z,8.40
2018-11-06T03:40:57.910Z,8.40
2018-11-06T03:43:31.686Z,8.30
2018-11-06T03:46:03.265Z,8.30
2018-11-06T03:48:35.127Z,8.40
2018-11-06T03:51:08.760Z,8.40
2018-11-06T03:53:40.588Z,8.50
2018-11-06T03:56:11.785Z,8.60
2018-11-06T03:58:44.292Z,8.50
2018-11-06T04:01:16.164Z,8.50
2018-11-06T04:03:49.181Z,8.40
2018-11-06T04:06:21.547Z,8.40
2018-11-06T04:08:53.551Z,8.50
2018-11-06T04:11:25.289Z,8.50
2018-11-06T04:13:56.471Z,8.50
2018-11-06T04:16:28.822Z,8.60
2018-11-06T04:18:59.930Z,8.60
2018-11-06T04:21:35.948Z,8.60
2018-11-06T04:24:10.966Z,8.50
2018-11-06T04:26:42.569Z,8.50
2018-11-06T04:29:14.312Z,8.50
2018-11-06T04:31:45.788Z,8.60
2018-11-06T04:34:17.895Z,8.60
2018-11-06T04:36:50.208Z,8.70
2018-11-06T04:39:21.618Z,8.70
2018-11-06T04:41:52.071Z,8.70
2018-11-06T04:44:23.034Z,8.70
2018-11-06T04:46:53.374Z,8.70
2018-11-06T04:49:25.550Z,8.80
2018-11-06T04:51:56.265Z,8.80
2018-11-06T04:54:29.132Z,8.80
2018-11-06T04:57:00.520Z,8.80
2018-11-06T04:59:32.183Z,8.80
2018-11-06T05:02:04.870Z,8.70
2018-11-06T05:04:38.718Z,8.80
2018-11-06T05:07:09.056Z,8.80
2018-11-06T05:09:39.674Z,8.80
2018-11-06T05:12:10.872Z,8.90
2018-11-06T05:14:41.179Z,8.90
2018-11-06T05:17:11.579Z,8.80
2018-11-06T05:19:42.809Z,8.80
2018-11-06T05:22:13.089Z,8.80
2018-11-06T05:24:43.399Z,8.70
2018-11-06T05:27:13.871Z,8.70
2018-11-06T05:29:44.258Z,8.60
2018-11-06T05:32:14.509Z,8.70
2018-11-06T05:34:44.864Z,8.70
2018-11-06T05:37:15.080Z,8.60
2018-11-06T05:40:02.159Z,8.60
2018-11-06T05:42:32.942Z,8.60
2018-11-06T05:45:03.286Z,8.50
2018-11-06T05:47:33.603Z,8.40
2018-11-06T05:50:04.046Z,8.50
2018-11-06T05:52:37.231Z,8.50
2018-11-06T05:55:11.699Z,8.50
2018-11-06T05:57:43.850Z,8.40
2018-11-06T06:00:18.803Z,8.50
2018-11-06T06:02:52.079Z,8.50
2018-11-06T06:05:27.556Z,8.40
2018-11-06T06:08:01.282Z,8.30
2018-11-06T06:10:33.909Z,8.20
2018-11-06T06:13:08.400Z,8.20
2018-11-06T06:15:46.137Z,8.20
2018-11-06T06:18:19.438Z,8.20
2018-11-06T06:20:53.766Z,8.20
2018-11-06T06:23:27.424Z,8.20
2018-11-06T06:26:01.190Z,8.10
2018-11-06T06:28:35.211Z,8.20
2018-11-06T06:31:08.260Z,8.20
2018-11-06T06:33:44.737Z,8.20
2018-11-06T06:36:19.326Z,8.10
2018-11-06T06:38:54.459Z,8.00
2018-11-06T06:41:29.334Z,8.10
2018-11-06T06:44:04.210Z,8.00
2018-11-06T06:46:38.105Z,8.10
2018-11-06T06:49:14.058Z,8.00
2018-11-06T06:51:44.827Z,7.90
2018-11-06T06:54:15.389Z,7.80
2018-11-06T06:56:45.599Z,7.80
2018-11-06T06:59:15.886Z,7.90
2018-11-06T07:01:46.454Z,7.80
2018-11-06T07:04:18.378Z,8.00
2018-11-06T07:06:49.527Z,8.00
2018-11-06T07:09:19.814Z,8.00
2018-11-06T07:11:50.070Z,8.20
2018-11-06T07:14:20.475Z,8.20
2018-11-06T07:16:50.928Z,8.30
2018-11-06T07:19:21.451Z,8.40
2018-11-06T07:21:52.947Z,8.40
2018-11-06T07:24:23.270Z,8.50
2018-11-06T07:26:53.992Z,8.60
2018-11-06T07:29:24.785Z,8.70
2018-11-06T07:32:03.243Z,8.80
2018-11-06T07:34:34.341Z,8.90
2018-11-06T07:37:07.002Z,9.10
2018-11-06T07:39:40.063Z,9.20
2018-11-06T07:42:12.550Z,9.40
2018-11-06T07:44:45.987Z,9.50
2018-11-06T07:47:20.757Z,9.60
2018-11-06T07:49:53.585Z,9.70
2018-11-06T07:52:26.888Z,9.80
2018-11-06T07:55:01.257Z,10.10
2018-11-06T07:57:34.432Z,10.40
2018-11-06T08:00:07.822Z,10.70
2018-11-06T08:02:38.774Z,11.10
2018-11-06T08:05:09.086Z,11.30
2018-11-06T08:07:39.892Z,11.40
2018-11-06T08:10:11.038Z,11.50
2018-11-06T08:12:43.051Z,11.40
2018-11-06T08:15:13.981Z,11.60
2018-11-06T08:17:45.230Z,11.70
2018-11-06T08:20:15.853Z,11.80
2018-11-06T08:22:46.231Z,11.80
2018-11-06T08:25:17.298Z,11.90
2018-11-06T08:27:47.765Z,11.80
2018-11-06T08:30:18.263Z,11.90
2018-11-06T08:32:48.860Z,12.00
2018-11-06T08:35:20.661Z,12.20
2018-11-06T08:37:52.527Z,12.50
2018-11-06T08:40:23.568Z,13.00
2018-11-06T08:42:57.021Z,13.50
2018-11-06T08:45:29.183Z,13.90
2018-11-06T08:47:59.952Z,14.30
2018-11-06T08:50:33.779Z,14.80
2018-11-06T08:53:04.159Z,15.30
2018-11-06T08:55:34.474Z,15.80
2018-11-06T08:58:04.834Z,16.10
2018-11-06T09:00:35.470Z,16.50
2018-11-06T09:03:06.214Z,17.00
2018-11-06T09:08:15.894Z,18.50
2018-11-06T09:10:47.422Z,19.20
2018-11-06T09:13:18.569Z,19.80
2018-11-06T09:15:49.194Z,20.30
2018-11-06T09:18:19.964Z,20.40
2018-11-06T09:20:51.122Z,20.10
2018-11-06T09:23:22.882Z,19.50
2018-11-06T09:25:55.213Z,18.90
2018-11-06T09:28:26.651Z,18.70
2018-11-06T09:30:57.069Z,18.70
2018-11-06T09:33:27.350Z,18.90
2018-11-06T09:36:00.041Z,19.40
2018-11-06T09:38:31.323Z,19.90
2018-11-06T09:41:02.603Z,20.30
2018-11-06T09:43:33.467Z,20.50
2018-11-06T09:46:04.275Z,20.60
2018-11-06T09:48:35.409Z,20.60
2018-11-06T09:51:06.821Z,20.40
2018-11-06T09:53:40.542Z,20.30
2018-11-06T09:56:11.783Z,20.20
2018-11-06T09:58:42.469Z,20.10
2018-11-06T10:01:13.049Z,20.20
2018-11-06T10:03:43.754Z,20.20
2018-11-06T10:06:14.348Z,20.30
2018-11-06T10:08:45.334Z,20.30
2018-11-06T10:11:15.766Z,20.50
2018-11-06T10:13:46.438Z,21.00
2018-11-06T10:16:16.982Z,21.70
2018-11-06T10:18:47.514Z,22.60
2018-11-06T10:21:19.151Z,23.30
2018-11-06T10:23:50.860Z,23.50
2018-11-06T10:26:22.816Z,23.30
2018-11-06T10:28:53.577Z,23.00
2018-11-06T10:31:25.518Z,23.00
2018-11-06T10:33:56.356Z,22.90
2018-11-06T10:36:27.177Z,22.50
2018-11-06T10:38:58.026Z,22.10
2018-11-06T10:41:29.437Z,21.80
2018-11-06T10:43:59.989Z,21.10
2018-11-06T10:46:30.503Z,20.60
2018-11-06T10:49:00.818Z,20.30
2018-11-06T10:51:31.848Z,19.90
2018-11-06T10:54:02.231Z,19.70
2018-11-06T10:56:32.831Z,19.30
2018-11-06T10:59:03.159Z,19.20
2018-11-06T11:01:39.325Z,19.10
2018-11-06T11:04:16.606Z,19.00
2018-11-06T11:06:46.974Z,18.80
2018-11-06T11:09:17.462Z,18.70
2018-11-06T11:11:47.925Z,18.70
2018-11-06T11:14:18.598Z,18.70
2018-11-06T11:16:49.021Z,18.80
2018-11-06T11:19:19.391Z,18.90
2018-11-06T11:21:49.880Z,19.00
2018-11-06T11:24:20.317Z,19.30
2018-11-06T11:26:50.863Z,19.60
2018-11-06T11:29:21.362Z,20.40
2018-11-06T11:31:52.245Z,21.10
2018-11-06T11:34:23.071Z,21.70
2018-11-06T11:36:54.106Z,22.30
2018-11-06T11:39:24.688Z,22.90
2018-11-06T11:41:55.628Z,23.20
2018-11-06T11:44:26.219Z,23.70
2018-11-06T11:46:56.671Z,23.90
2018-11-06T11:49:27.230Z,24.00
2018-11-06T11:51:57.688Z,24.30
2018-11-06T11:54:28.998Z,24.10
2018-11-06T11:57:00.283Z,23.90
2018-11-06T11:59:31.039Z,23.70
2018-11-06T12:02:01.871Z,23.30
2018-11-06T12:04:32.501Z,23.00
2018-11-06T12:07:02.770Z,22.60
2018-11-06T12:09:33.101Z,22.50
2018-11-06T12:12:03.457Z,22.30
2018-11-06T12:14:34.100Z,22.30
2018-11-06T12:17:05.818Z,22.20
2018-11-06T12:19:36.181Z,22.10
2018-11-06T12:22:07.609Z,22.10
2018-11-06T12:24:38.732Z,22.20
2018-11-06T12:27:09.658Z,22.30
2018-11-06T12:29:40.496Z,22.60
2018-11-06T12:32:11.695Z,22.70
2018-11-06T12:34:43.696Z,22.80
2018-11-06T12:37:17.223Z,22.70
2018-11-06T12:39:48.696Z,22.60
2018-11-06T12:42:19.179Z,22.50
2018-11-06T12:44:49.524Z,22.50
2018-11-06T12:47:19.921Z,22.40
2018-11-06T12:50:01.136Z,22.30
2018-11-06T12:52:39.003Z,22.30
2018-11-06T12:55:19.878Z,22.40
2018-11-06T12:57:50.510Z,22.40
2018-11-06T13:00:21.546Z,22.40
2018-11-06T13:02:52.982Z,22.30
2018-11-06T13:05:23.324Z,22.60
2018-11-06T13:07:53.895Z,22.70
2018-11-06T13:10:25.050Z,22.60
2018-11-06T13:12:55.960Z,22.70
2018-11-06T13:15:28.359Z,22.70
2018-11-06T13:17:59.814Z,22.50
2018-11-06T13:20:30.950Z,22.40
2018-11-06T13:23:02.452Z,22.30
2018-11-06T13:25:33.672Z,22.30
2018-11-06T13:28:04.225Z,22.20
2018-11-06T13:30:34.639Z,22.10
2018-11-06T13:33:05.473Z,21.90
2018-11-06T13:35:37.361Z,21.80
2018-11-06T13:38:08.758Z,21.70
2018-11-06T13:40:42.236Z,21.60
2018-11-06T13:43:12.567Z,21.30
2018-11-06T13:45:43.776Z,21.20
2018-11-06T13:48:14.699Z,21.10
2018-11-06T13:50:53.646Z,20.80
2018-11-06T13:53:26.944Z,20.80
2018-11-06T13:55:58.473Z,21.30
2018-11-06T13:58:29.597Z,21.90
2018-11-06T14:01:01.561Z,22.70
2018-11-06T14:03:32.937Z,23.30
2018-11-06T14:06:04.158Z,23.30
2018-11-06T14:08:35.742Z,23.10
2018-11-06T14:11:08.499Z,22.70
2018-11-06T14:13:40.683Z,22.40
2018-11-06T14:16:11.702Z,22.00
2018-11-06T14:18:42.452Z,21.60
2018-11-06T14:21:14.033Z,21.30
2018-11-06T14:23:45.283Z,21.10
2018-11-06T14:26:16.581Z,20.70
2018-11-06T14:28:47.155Z,20.40
2018-11-06T14:31:18.058Z,20.20
2018-11-06T14:33:48.895Z,20.10
2018-11-06T14:36:19.438Z,20.00
2018-11-06T14:38:50.457Z,19.90
2018-11-06T14:41:21.702Z,19.80
2018-11-06T14:43:56.611Z,19.70
2018-11-06T14:46:27.847Z,19.60
2018-11-06T14:48:59.282Z,19.30
2018-11-06T14:51:31.101Z,19.10
2018-11-06T14:54:02.030Z,19.00
2018-11-06T14:56:32.803Z,19.00
2018-11-06T14:59:03.176Z,18.90
2018-11-06T15:01:33.946Z,18.90
2018-11-06T15:04:04.198Z,18.80
2018-11-06T15:06:34.502Z,18.60
2018-11-06T15:09:07.698Z,18.50
2018-11-06T15:11:38.550Z,18.30
2018-11-06T15:14:09.263Z,18.20
2018-11-06T15:16:40.443Z,18.10
2018-11-06T15:19:10.882Z,18.00
2018-11-06T15:21:41.370Z,17.90
2018-11-06T15:24:11.858Z,17.80
2018-11-06T15:26:51.762Z,17.70
2018-11-06T15:29:23.032Z,17.50
2018-11-06T15:31:54.222Z,17.40
2018-11-06T15:34:24.783Z,17.10
2018-11-06T15:36:55.480Z,17.00
2018-11-06T15:39:26.726Z,16.80
2018-11-06T15:41:57.309Z,16.70
2018-11-06T15:44:27.733Z,16.60
2018-11-06T15:46:58.855Z,16.50
2018-11-06T15:49:31.347Z,16.30
2018-11-06T15:52:03.260Z,16.20
2018-11-06T15:54:33.789Z,16.00
2018-11-06T15:57:04.262Z,15.90
2018-11-06T15:59:38.504Z,15.80
2018-11-06T16:02:10.083Z,15.70
2018-11-06T16:04:40.571Z,15.60
2018-11-06T16:07:10.980Z,15.50
2018-11-06T16:09:41.353Z,15.30
2018-11-06T16:12:11.901Z,15.30
2018-11-06T16:14:42.226Z,15.20
2018-11-06T16:17:12.674Z,15.00
2018-11-06T16:19:42.962Z,15.00
2018-11-06T16:22:13.546Z,14.80
2018-11-06T16:24:43.880Z,14.70
2018-11-06T16:27:14.744Z,14.60
2018-11-06T16:29:46.185Z,14.60
2018-11-06T16:32:16.486Z,14.50
2018-11-06T16:34:46.781Z,14.50
2018-11-06T16:37:17.114Z,14.40
2018-11-06T16:39:47.729Z,14.30
2018-11-06T16:42:18.345Z,14.20
2018-11-06T16:44:49.296Z,14.10
2018-11-06T16:47:19.829Z,14.00
2018-11-06T16:49:50.446Z,14.00
2018-11-06T16:52:21.046Z,13.90
2018-11-06T16:54:51.890Z,13.80
2018-11-06T16:57:22.423Z,13.70
2018-11-06T16:59:54.643Z,13.70
2018-11-06T17:02:26.233Z,13.60
2018-11-06T17:04:59.875Z,13.60
2018-11-06T17:07:32.146Z,13.50
2018-11-06T17:10:03.858Z,13.50
2018-11-06T17:12:35.236Z,13.40
2018-11-06T17:15:10.202Z,13.30
2018-11-06T17:17:43.827Z,13.20
2018-11-06T17:20:21.491Z,13.20
2018-11-06T17:22:56.427Z,13.20
2018-11-06T17:25:30.012Z,13.20
2018-11-06T17:28:00.862Z,13.20
2018-11-06T17:30:31.526Z,13.20
2018-11-06T17:33:03.265Z,13.10
2018-11-06T17:35:36.358Z,13.00
2018-11-06T17:38:07.923Z,13.00
2018-11-06T17:40:48.058Z,12.90
2018-11-06T17:43:22.188Z,12.90
2018-11-06T17:45:52.515Z,12.80
2018-11-06T17:48:24.624Z,12.80
2018-11-06T17:50:55.237Z,12.70
2018-11-06T17:53:25.966Z,12.60
2018-11-06T17:57:23.836Z,12.60
2018-11-06T17:59:54.481Z,12.60
2018-11-06T18:02:25.258Z,12.20
2018-11-06T18:04:57.871Z,11.90
2018-11-06T18:07:29.096Z,11.60
2018-11-06T18:09:59.542Z,11.70
2018-11-06T18:12:31.878Z,11.70
2018-11-06T18:15:05.400Z,11.90
2018-11-06T18:17:37.056Z,11.90
2018-11-06T18:20:08.766Z,11.90
2018-11-06T18:22:40.261Z,12.00
2018-11-06T18:25:11.937Z,12.10
2018-11-06T18:27:43.032Z,12.10
2018-11-06T18:30:18.239Z,12.00
2018-11-06T18:32:49.342Z,12.00
2018-11-06T18:35:20.796Z,11.90
2018-11-06T18:37:52.085Z,11.90
2018-11-06T18:40:23.053Z,11.90
2018-11-06T18:42:57.321Z,11.90
2018-11-06T18:49:15.530Z,11.80
2018-11-06T18:51:46.222Z,11.60
2018-11-06T18:54:19.151Z,11.70
2018-11-06T18:56:50.561Z,11.80
2018-11-06T19:02:36.929Z,11.80
2018-11-06T19:05:09.918Z,11.90
2018-11-06T19:07:40.838Z,12.10
2018-11-06T19:10:12.744Z,12.20
2018-11-06T19:12:43.331Z,12.50
2018-11-06T19:15:15.002Z,12.50
2018-11-06T19:17:46.082Z,12.70
2018-11-06T19:20:16.634Z,12.80
2018-11-06T19:22:47.477Z,12.90
2018-11-06T19:25:17.845Z,13.00
2018-11-06T19:27:48.562Z,13.10
2018-11-06T19:30:19.874Z,13.10
2018-11-06T19:32:50.410Z,13.20
2018-11-06T19:35:20.712Z,13.20
2018-11-06T19:37:52.697Z,13.20
2018-11-06T19:40:23.649Z,13.30
2018-11-06T19:42:55.856Z,13.40
2018-11-06T19:45:26.366Z,13.50
2018-11-06T19:47:57.040Z,13.50
2018-11-06T19:50:29.330Z,13.50
2018-11-06T19:52:59.847Z,13.40
2018-11-06T19:55:30.159Z,13.30
2018-11-06T19:58:00.905Z,13.30
2018-11-06T20:00:31.352Z,13.40
2018-11-06T20:03:01.760Z,13.30
2018-11-06T20:10:20.130Z,13.20
2018-11-06T20:12:51.609Z,13.10
2018-11-06T20:15:26.149Z,13.10
2018-11-06T20:17:56.717Z,13.10
2018-11-06T20:20:28.245Z,13.00
2018-11-06T20:22:58.770Z,13.10
2018-11-06T20:25:29.306Z,13.10
2018-11-06T20:27:59.842Z,13.10
2018-11-06T20:30:30.242Z,13.10
2018-11-06T20:33:00.764Z,13.10
2018-11-06T20:35:31.121Z,13.00
2018-11-06T20:38:01.651Z,13.00
2018-11-06T20:40:33.346Z,13.00
2018-11-06T20:43:04.072Z,13.00
2018-11-06T20:45:34.334Z,13.00
2018-11-06T20:48:05.773Z,13.10
2018-11-06T20:50:36.128Z,13.00
2018-11-06T20:53:07.639Z,13.10
2018-11-06T20:55:38.060Z,13.00
2018-11-06T20:58:08.497Z,13.00
2018-11-06T21:00:39.510Z,13.00
2018-11-06T21:03:10.264Z,12.90
2018-11-06T21:05:40.643Z,12.70
2018-11-06T21:08:11.190Z,12.60
2018-11-06T21:10:41.917Z,12.80
2018-11-06T21:13:12.440Z,12.80
2018-11-06T21:15:42.826Z,12.80
2018-11-06T21:18:13.288Z,12.80
2018-11-06T21:20:44.015Z,12.80
2018-11-06T21:23:14.691Z,12.80
2018-11-06T21:25:46.901Z,12.80
2018-11-06T21:28:17.306Z,12.70
2018-11-06T21:30:48.462Z,12.60
2018-11-06T21:33:19.398Z,12.60
2018-11-06T21:35:50.018Z,12.50
2018-11-06T21:38:21.877Z,12.40
2018-11-06T21:40:52.250Z,12.30
2018-11-06T21:43:22.681Z,12.40
2018-11-06T21:45:54.636Z,12.30
2018-11-06T21:48:25.993Z,12.40
2018-11-06T21:50:57.719Z,12.40
2018-11-06T21:53:30.787Z,12.40
2018-11-06T21:56:03.290Z,12.40
2018-11-06T21:58:34.682Z,12.40
2018-11-06T22:01:05.243Z,12.50
2018-11-06T22:03:35.884Z,12.40
2018-11-06T22:06:06.755Z,12.40
2018-11-06T22:08:37.587Z,12.30
2018-11-06T22:11:10.102Z,12.30
2018-11-06T22:13:41.529Z,12.40
2018-11-06T22:16:11.903Z,12.40
2018-11-06T22:18:43.615Z,12.40
2018-11-06T22:21:13.942Z,12.10
2018-11-06T22:23:46.969Z,11.90
2018-11-06T22:26:19.203Z,11.60
2018-11-06T22:28:50.010Z,11.40
2018-11-06T22:31:24.847Z,11.30
2018-11-06T22:36:59.905Z,10.90
2018-11-06T22:39:51.767Z,10.80
2018-11-06T22:42:26.724Z,10.70
2018-11-06T22:45:01.069Z,10.70
2018-11-06T22:47:47.391Z,10.70
2018-11-06T22:50:19.312Z,10.70
2018-11-06T22:52:52.041Z,10.70
2018-11-06T22:55:22.606Z,10.70
2018-11-06T22:57:53.145Z,10.70
2018-11-06T23:00:29.035Z,10.80
2018-11-06T23:02:59.606Z,10.80
2018-11-06T23:05:30.161Z,10.90
2018-11-06T23:08:06.985Z,10.90
2018-11-06T23:10:37.626Z,10.90
2018-11-06T23:13:08.234Z,10.90
2018-11-06T23:15:38.585Z,10.90
2018-11-06T23:18:09.479Z,10.90
2018-11-06T23:20:39.932Z,10.90
2018-11-06T23:23:10.430Z,11.00
2018-11-06T23:25:40.989Z,11.00
2018-11-06T23:28:11.345Z,11.00
2018-11-06T23:30:42.077Z,11.00
2018-11-06T23:33:12.518Z,11.00
2018-11-06T23:35:42.947Z,11.00
2018-11-06T23:38:13.262Z,10.90
2018-11-06T23:40:43.600Z,10.90
2018-11-06T23:43:13.948Z,10.90
2018-11-06T23:45:44.354Z,10.90
2018-11-06T23:48:14.774Z,10.80
2018-11-06T23:50:45.144Z,10.80
2018-11-06T23:53:15.737Z,10.70
2018-11-06T23:55:46.054Z,10.70
2018-11-06T23:58:16.401Z,10.60
